Time;durP1;ratioP1;P1;durP2;ratioP2;P2;SDS_P1;SDS_P2;PMS_P1;PMS_P2;Temp;Humidity;BMP_temperature;BMP_pressure;BME280_temperature;BME280_humidity;BME280_pressure;Samples;Min_cycle;Max_cycle;Signal;HPM_P1;HPM_P2
2023/08/21 00:00:18;;;;;;;19.58;7.75;;;;;;;17.12;69.86;99684.31;4920449;29;20071;-85
2023/08/21 00:02:44;;;;;;;14.93;7.77;;;;;;;17.01;70.37;99668.53;4900107;29;20509;-86
2023/08/21 00:05:10;;;;;;;12.13;7.43;;;;;;;16.98;70.56;99678.31;4909164;29;20048;-88
2023/08/21 00:07:36;;;;;;;15.23;8.03;;;;;;;17.04;70.28;99678.91;4915512;29;20050;-88
2023/08/21 00:10:02;;;;;;;13.40;8.33;;;;;;;17.12;70.31;99703.63;4923226;29;20291;-88
2023/08/21 00:12:28;;;;;;;11.75;7.65;;;;;;;17.07;71.42;99701.09;4901366;29;20425;-89
2023/08/21 00:14:54;;;;;;;10.93;8.33;;;;;;;16.83;70.69;99663.28;4907146;29;20037;-88
2023/08/21 00:17:20;;;;;;;10.60;8.97;;;;;;;16.65;70.96;99653.56;4890455;29;20414;-89
2023/08/21 00:19:46;;;;;;;11.20;8.43;;;;;;;16.59;70.77;99663.25;4909826;29;20043;-89
2023/08/21 00:22:12;;;;;;;11.73;8.40;;;;;;;16.67;71.57;99685.22;4922340;29;20443;-88
2023/08/21 00:24:38;;;;;;;10.10;7.53;;;;;;;16.78;71.94;99718.72;4894946;29;20059;-88
2023/08/21 00:27:04;;;;;;;12.27;8.52;;;;;;;16.62;71.67;99688.22;4930648;29;20078;-87
2023/08/21 00:29:30;;;;;;;13.77;9.17;;;;;;;16.52;72.23;99685.88;4940143;29;20039;-87
2023/08/21 00:31:56;;;;;;;13.63;9.10;;;;;;;16.42;72.35;99687.16;4889710;29;20091;-88
2023/08/21 00:34:22;;;;;;;14.20;10.13;;;;;;;16.45;72.48;99703.00;4872920;29;20786;-86
2023/08/21 00:36:48;;;;;;;18.38;10.43;;;;;;;16.36;72.91;99687.72;4920725;29;20139;-87
2023/08/21 00:39:15;;;;;;;15.23;9.77;;;;;;;16.35;73.10;99688.84;4889210;29;20104;-88
2023/08/21 00:41:42;;;;;;;18.17;9.50;;;;;;;16.29;72.64;99679.19;4889248;29;20425;-86
2023/08/21 00:44:07;;;;;;;;;;;;;;;16.53;72.83;99717.88;4890738;29;20426;-87
2023/08/21 00:46:34;;;;;;;14.33;9.77;;;;;;;16.42;72.58;99702.88;4904382;29;19922;-87
2023/08/21 00:49:01;;;;;;;;;;;;;;;16.43;72.89;99721.06;4904425;29;20131;-89
2023/08/21 00:51:27;;;;;;;14.77;10.10;;;;;;;16.13;73.13;99688.13;4904286;29;19930;-87
2023/08/21 00:53:53;;;;;;;17.00;10.60;;;;;;;16.15;72.92;99685.03;4892186;29;20046;-87
2023/08/21 00:56:19;;;;;;;13.50;10.20;;;;;;;16.37;73.17;99727.94;4919696;29;20063;-86
2023/08/21 00:58:46;;;;;;;17.40;10.90;;;;;;;16.15;73.14;99694.09;4921438;29;20052;-86
2023/08/21 01:01:13;;;;;;;;;;;;;;;16.37;73.03;99726.00;4904585;29;20521;-85
2023/08/21 01:03:39;;;;;;;20.63;9.85;;;;;;;16.07;72.79;99692.25;4903093;29;19923;-87
2023/08/21 01:06:05;;;;;;;13.07;9.85;;;;;;;16.07;72.93;99683.19;4904703;29;20039;-88
2023/08/21 01:08:57;;;;;;;12.45;9.45;;;;;;;16.34;72.97;99723.13;4921889;29;20539;-87
2023/08/21 01:11:35;;;;;;;16.75;10.77;;;;;;;16.19;73.15;99702.50;4890041;29;20433;-89
2023/08/21 01:14:24;;;;;;;16.98;10.20;;;;;;;16.39;73.90;99711.84;4911225;29;20035;-87
2023/08/21 01:16:55;;;;;;;16.30;10.00;;;;;;;16.32;73.55;99695.84;4889314;29;20055;-88
2023/08/21 01:19:31;;;;;;;16.80;11.48;;;;;;;16.35;73.27;99694.38;4907491;29;20047;-87
2023/08/21 01:21:59;;;;;;;20.40;11.38;;;;;;;16.25;73.72;99684.59;4901862;29;20050;-88
2023/08/21 01:24:25;;;;;;;15.48;11.50;;;;;;;16.38;73.66;99699.22;4927563;29;20016;-85
2023/08/21 01:26:51;;;;;;;18.70;12.23;;;;;;;16.43;73.81;99702.56;4925931;29;20028;-89
2023/08/21 01:29:17;;;;;;;14.73;11.50;;;;;;;16.29;73.79;99684.69;4909070;29;20063;-88
2023/08/21 01:31:50;;;;;;;14.23;11.07;;;;;;;16.20;73.55;99676.53;4905005;29;20040;-87
2023/08/21 01:34:17;;;;;;;22.45;12.13;;;;;;;16.35;74.31;99694.38;4920540;29;20309;-88
2023/08/21 01:36:44;;;;;;;17.42;12.23;;;;;;;16.43;73.57;99699.00;4887231;29;20058;-88
2023/08/21 01:39:10;;;;;;;15.82;12.05;;;;;;;16.44;73.08;99697.84;4906458;29;20055;-88
2023/08/21 01:41:37;;;;;;;13.23;10.52;;;;;;;16.48;73.10;99709.78;4904622;29;20046;-89
2023/08/21 01:44:03;;;;;;;16.17;10.63;;;;;;;16.34;73.11;99701.84;4921353;29;20055;-86
2023/08/21 01:46:29;;;;;;;16.52;10.75;;;;;;;16.20;73.44;99663.56;4889786;29;20800;-88
2023/08/21 01:48:55;;;;;;;13.70;10.57;;;;;;;16.43;73.24;99702.56;4889560;29;20048;-87
2023/08/21 01:51:21;;;;;;;14.15;10.15;;;;;;;16.37;73.09;99673.56;4899788;29;20048;-88
2023/08/21 01:53:47;;;;;;;15.68;10.90;;;;;;;16.42;73.58;99695.44;4906184;28;20031;-87
2023/08/21 01:56:13;;;;;;;18.30;10.77;;;;;;;16.59;73.67;99723.97;4954408;28;20450;-88
2023/08/21 01:58:39;;;;;;;18.53;10.53;;;;;;;16.13;72.66;99657.78;4919914;29;20127;-88
2023/08/21 02:01:05;;;;;;;17.90;9.18;;;;;;;16.16;73.23;99662.63;4897780;29;20063;-87
2023/08/21 02:03:31;;;;;;;13.60;9.52;;;;;;;16.25;72.50;99687.34;4906989;29;20036;-88
2023/08/21 02:06:00;;;;;;;15.10;9.47;;;;;;;16.23;73.83;99691.59;4887513;29;20044;-89
2023/08/21 02:08:32;;;;;;;13.30;8.70;;;;;;;15.99;73.55;99660.03;4904170;29;20052;-86
2023/08/21 02:10:58;;;;;;;13.15;9.07;;;;;;;15.97;73.31;99685.22;4903939;29;20086;-87
2023/08/21 02:13:24;;;;;;;10.20;7.80;;;;;;;15.89;73.07;99677.00;4903880;29;20056;-88
2023/08/21 02:15:58;;;;;;;16.10;8.77;;;;;;;15.71;73.47;99654.34;4906475;29;20452;-88
2023/08/21 02:18:44;;;;;;;15.02;7.40;;;;;;;15.90;73.52;99700.69;4883345;29;20285;-87
2023/08/21 02:21:11;;;;;;;18.52;7.78;;;;;;;15.82;73.46;99707.09;4905244;29;20040;-87
2023/08/21 02:23:37;;;;;;;19.45;8.55;;;;;;;15.67;73.28;99684.53;4922147;29;20052;-86
2023/08/21 02:26:03;;;;;;;13.38;8.15;;;;;;;15.70;73.63;99686.59;4873691;29;20068;-88
2023/08/21 02:28:29;;;;;;;12.30;7.65;;;;;;;15.78;73.92;99700.66;4899037;29;20142;-88
2023/08/21 02:30:55;;;;;;;14.80;7.97;;;;;;;15.79;74.32;99716.84;4903373;29;20123;-87
2023/08/21 02:33:21;;;;;;;11.50;7.15;;;;;;;15.51;73.91;99680.75;4929485;29;20046;-88
2023/08/21 02:35:47;;;;;;;14.25;8.15;;;;;;;15.70;74.26;99716.13;4906531;29;20126;-87
2023/08/21 02:38:13;;;;;;;23.50;8.82;;;;;;;15.58;75.38;99708.56;4921216;29;20065;-88
2023/08/21 02:40:39;;;;;;;17.17;8.68;;;;;;;15.63;75.91;99738.69;4916313;29;20055;-87
2023/08/21 02:43:05;;;;;;;13.35;7.95;;;;;;;15.19;75.59;99671.25;4929399;29;20490;-88
2023/08/21 02:45:31;;;;;;;12.60;7.57;;;;;;;15.47;75.52;99732.97;4906365;29;20039;-86
2023/08/21 02:47:58;;;;;;;12.82;7.50;;;;;;;15.37;75.47;99705.00;4913478;29;20881;-88
2023/08/21 02:50:24;;;;;;;12.65;7.70;;;;;;;15.39;75.09;99716.47;4932134;29;20054;-89
2023/08/21 02:52:50;;;;;;;11.03;7.20;;;;;;;15.31;74.71;99695.31;4904277;29;20048;-89
2023/08/21 02:55:17;;;;;;;10.93;6.68;;;;;;;15.23;74.78;99678.53;4889770;29;20044;-90
2023/08/21 02:57:45;;;;;;;14.55;6.68;;;;;;;15.24;74.80;99669.13;4892565;29;20056;-89
2023/08/21 03:00:11;;;;;;;19.02;7.22;;;;;;;15.67;74.63;99741.59;4891346;29;20051;-90
2023/08/21 03:02:38;;;;;;;10.25;7.00;;;;;;;15.47;74.97;99718.38;4894553;29;20047;-89
2023/08/21 03:05:05;;;;;;;10.32;6.90;;;;;;;15.24;75.01;99674.63;4904300;29;20569;-88
2023/08/21 03:07:31;;;;;;;;;;;;;;;15.71;75.14;99748.84;4888788;29;20059;-86
2023/08/21 03:09:57;;;;;;;14.75;6.75;;;;;;;15.77;74.95;99748.66;4906189;29;19923;-90
2023/08/21 03:12:23;;;;;;;10.25;6.57;;;;;;;15.51;75.59;99708.28;4900483;29;20043;-88
2023/08/21 03:14:49;;;;;;;14.00;6.32;;;;;;;15.45;75.33;99698.63;4920124;29;20044;-89
2023/08/21 03:17:16;;;;;;;10.18;6.22;;;;;;;15.45;75.26;99702.16;4906888;29;20079;-90
2023/08/21 03:19:42;;;;;;;11.43;6.35;;;;;;;15.60;75.58;99735.78;4941114;29;20125;-88
2023/08/21 03:22:09;;;;;;;10.43;6.07;;;;;;;15.78;75.55;99755.78;4899230;29;20499;-91
2023/08/21 03:24:35;;;;;;;10.45;6.35;;;;;;;15.64;75.43;99721.00;4906477;29;20044;-87
2023/08/21 03:27:02;;;;;;;13.60;6.30;;;;;;;15.65;75.02;99711.56;4920046;29;20414;-87
2023/08/21 03:29:28;;;;;;;;;;;;;;;15.92;74.69;99753.53;4922248;29;20058;-87
2023/08/21 03:31:57;;;;;;;10.18;5.13;;;;;;;15.51;75.40;99700.03;4912064;29;19938;-88
2023/08/21 03:34:23;;;;;;;23.23;6.32;;;;;;;15.84;74.54;99741.44;4904045;29;20047;-89
2023/08/21 03:36:53;;;;;;;18.75;6.05;;;;;;;15.71;73.72;99703.94;4902773;29;20040;-88
2023/08/21 03:39:19;;;;;;;15.33;5.90;;;;;;;15.77;74.75;99719.13;4920401;29;20067;-88
2023/08/21 03:41:47;;;;;;;9.30;5.75;;;;;;;15.94;73.84;99732.75;4923198;29;20043;-87
2023/08/21 03:44:14;;;;;;;10.93;6.00;;;;;;;16.06;73.11;99736.69;4891942;29;20060;-86
2023/08/21 03:46:42;;;;;;;8.02;5.85;;;;;;;16.14;73.55;99752.38;4910349;29;20138;-88
2023/08/21 03:49:09;;;;;;;12.73;6.05;;;;;;;15.85;73.36;99692.63;4891958;29;20055;-89
2023/08/21 03:51:35;;;;;;;12.75;5.55;;;;;;;16.14;72.82;99733.88;4889325;29;20581;-86
2023/08/21 03:54:01;;;;;;;11.23;5.95;;;;;;;16.33;72.06;99757.38;4891927;29;20103;-88
2023/08/21 03:56:27;;;;;;;11.30;5.70;;;;;;;16.33;71.96;99746.34;4891233;29;20040;-87
2023/08/21 03:58:54;;;;;;;15.93;5.50;;;;;;;16.51;71.17;99750.50;4894634;29;20032;-87
2023/08/21 04:01:20;;;;;;;9.10;5.27;;;;;;;16.38;70.67;99724.84;4924748;29;20078;-86
2023/08/21 04:03:46;;;;;;;12.52;5.72;;;;;;;16.23;71.10;99714.47;4912768;29;20287;-87
2023/08/21 04:06:12;;;;;;;10.53;5.17;;;;;;;16.36;70.45;99729.91;4934474;29;20126;-87
2023/08/21 04:08:40;;;;;;;9.48;5.15;;;;;;;16.33;70.45;99711.28;4927766;29;20047;-89
2023/08/21 04:11:07;;;;;;;9.45;5.53;;;;;;;16.59;70.54;99744.09;4933737;29;20056;-87
2023/08/21 04:13:33;;;;;;;8.50;5.47;;;;;;;16.51;70.58;99724.88;4883038;29;20442;-90
2023/08/21 04:16:00;;;;;;;9.25;5.07;;;;;;;16.77;69.51;99768.75;4931150;29;20680;-88
2023/08/21 04:18:26;;;;;;;13.23;5.53;;;;;;;16.64;69.99;99751.34;4912058;29;20054;-89
2023/08/21 04:20:53;;;;;;;7.00;5.15;;;;;;;16.54;70.26;99736.03;4933200;29;20055;-88
2023/08/21 04:23:20;;;;;;;12.13;5.93;;;;;;;16.53;70.76;99736.38;4948147;29;20051;-89
2023/08/21 04:25:48;;;;;;;18.87;5.30;;;;;;;16.78;69.54;99762.88;4925855;29;20048;-89
2023/08/21 04:28:14;;;;;;;9.88;5.07;;;;;;;16.81;69.42;99742.88;4915373;29;20092;-88
2023/08/21 04:30:43;;;;;;;7.55;4.97;;;;;;;16.60;69.10;99703.50;4905052;29;20040;-88
2023/08/21 04:33:09;;;;;;;9.27;4.75;;;;;;;17.00;68.58;99750.59;4902662;29;20103;-88
2023/08/21 04:35:38;;;;;;;14.38;5.00;;;;;;;17.09;68.25;99747.72;4928991;29;20044;-90
2023/08/21 04:38:07;;;;;;;8.98;5.00;;;;;;;16.90;69.03;99706.88;4942267;29;20031;-88
2023/08/21 04:40:35;;;;;;;6.72;4.70;;;;;;;17.10;68.89;99730.00;4928157;29;20040;-89
2023/08/21 04:43:02;;;;;;;13.43;4.70;;;;;;;17.27;68.51;99759.34;4931515;29;20240;-88
2023/08/21 04:45:29;;;;;;;16.63;4.85;;;;;;;16.91;67.78;99712.03;4899846;29;20111;-90
2023/08/21 04:47:55;;;;;;;10.40;5.03;;;;;;;17.14;69.10;99742.75;4916178;29;20074;-89
2023/08/21 04:50:21;;;;;;;11.32;4.22;;;;;;;16.94;68.22;99712.50;4923867;29;20122;-91
2023/08/21 04:52:50;;;;;;;11.18;4.60;;;;;;;17.15;67.41;99751.84;4910270;29;20052;-88
2023/08/21 04:55:16;;;;;;;14.32;4.50;;;;;;;17.04;67.76;99736.91;4880579;29;20040;-87
2023/08/21 04:57:42;;;;;;;10.70;4.85;;;;;;;17.03;68.19;99727.81;4926633;29;20044;-88
2023/08/21 05:00:11;;;;;;;12.13;5.32;;;;;;;17.03;68.98;99702.97;4930216;29;20044;-88
2023/08/21 05:02:41;;;;;;;16.75;4.32;;;;;;;17.10;66.84;99713.41;4912040;29;20043;-88
2023/08/21 05:05:08;;;;;;;10.40;4.33;;;;;;;17.25;68.14;99723.78;4927658;29;20067;-89
2023/08/21 05:07:35;;;;;;;14.52;4.30;;;;;;;17.19;67.60;99710.53;4901184;29;20430;-89
2023/08/21 05:10:02;;;;;;;13.10;3.90;;;;;;;17.18;66.47;99703.38;4931428;29;20048;-89
2023/08/21 05:12:31;;;;;;;14.20;4.32;;;;;;;17.38;66.94;99730.06;4903862;29;20383;-88
2023/08/21 05:14:58;;;;;;;16.77;4.00;;;;;;;17.50;66.40;99738.34;4893467;29;20119;-89
2023/08/21 05:17:26;;;;;;;15.90;5.10;;;;;;;17.44;66.64;99701.03;4926280;29;20048;-90
2023/08/21 05:19:52;;;;;;;14.63;4.65;;;;;;;17.59;65.56;99752.84;4880744;29;20067;-86
2023/08/21 05:22:19;;;;;;;13.13;4.60;;;;;;;17.63;64.94;99730.03;4902235;29;20067;-90
2023/08/21 05:24:46;;;;;;;8.18;4.57;;;;;;;17.74;65.17;99737.44;4911817;29;20044;-89
2023/08/21 05:27:12;;;;;;;11.43;4.93;;;;;;;17.70;63.97;99735.75;4902032;29;20046;-86
2023/08/21 05:29:38;;;;;;;12.13;4.13;;;;;;;17.74;63.71;99750.47;4929170;29;20561;-89
2023/08/21 05:32:04;;;;;;;10.43;4.40;;;;;;;17.73;64.33;99729.53;4893917;29;20040;-87
2023/08/21 05:34:31;;;;;;;6.45;3.90;;;;;;;17.74;63.54;99731.13;4907915;29;20466;-87
2023/08/21 05:36:58;;;;;;;7.18;4.00;;;;;;;17.54;64.18;99694.22;4894341;29;20048;-88
2023/08/21 05:39:25;;;;;;;9.30;4.13;;;;;;;17.84;63.62;99736.97;4913412;29;20046;-89
2023/08/21 05:41:53;;;;;;;13.32;4.32;;;;;;;17.75;63.38;99722.50;4912173;29;20059;-90
2023/08/21 05:44:19;;;;;;;;;;;;;;;18.08;63.32;99777.59;4933821;29;20057;-88
2023/08/21 05:46:45;;;;;;;5.75;3.72;;;;;;;17.95;63.59;99756.69;4927459;29;19922;-88
2023/08/21 05:49:11;;;;;;;12.93;5.03;;;;;;;17.78;64.24;99709.94;4932717;29;20036;-87
2023/08/21 05:51:37;;;;;;;13.13;4.17;;;;;;;17.93;62.96;99739.63;4910146;29;20542;-88
2023/08/21 05:54:03;;;;;;;11.45;4.25;;;;;;;17.93;64.57;99711.94;4909273;29;20063;-89
2023/08/21 05:56:30;;;;;;;17.13;4.78;;;;;;;18.09;64.58;99714.78;4909296;29;20107;-89
2023/08/21 05:58:56;;;;;;;11.20;4.75;;;;;;;18.26;64.77;99725.50;4919014;29;20039;-89
2023/08/21 06:01:24;;;;;;;29.48;5.32;;;;;;;18.59;63.99;99756.81;4894127;29;20131;-87
2023/08/21 06:03:51;;;;;;;13.27;4.45;;;;;;;18.27;62.31;99696.66;4903797;29;20171;-89
2023/08/21 06:06:35;;;;;;;7.93;4.50;;;;;;;18.69;63.03;99739.66;4908886;29;20048;-91
2023/08/21 06:09:03;;;;;;;7.85;3.90;;;;;;;18.58;62.70;99724.75;4887548;29;20418;-89
2023/08/21 06:11:29;;;;;;;13.55;3.95;;;;;;;18.53;60.39;99707.22;4919724;29;20107;-87
2023/08/21 06:13:55;;;;;;;8.38;3.95;;;;;;;18.71;61.87;99723.50;4918497;29;20494;-88
2023/08/21 06:16:21;;;;;;;21.10;5.23;;;;;;;18.81;62.91;99731.31;4919309;29;20055;-89
2023/08/21 06:18:54;;;;;;;13.25;3.97;;;;;;;18.84;61.07;99727.00;4907038;29;20048;-89
2023/08/21 06:21:21;;;;;;;11.45;4.18;;;;;;;18.53;60.93;99696.16;4910254;29;20055;-89
2023/08/21 06:23:48;;;;;;;14.52;4.20;;;;;;;18.71;62.21;99724.31;4914042;29;20048;-88
2023/08/21 06:26:14;;;;;;;12.52;4.25;;;;;;;18.78;61.10;99718.16;4913278;29;20047;-88
2023/08/21 06:28:40;;;;;;;;;;;;;;;19.13;61.20;99750.66;4910612;29;20453;-87
2023/08/21 06:31:09;;;;;;;10.75;3.67;;;;;;;19.21;60.35;99735.81;4909491;29;19966;-86
2023/08/21 06:33:36;;;;;;;13.80;4.22;;;;;;;19.09;57.64;99699.88;4892509;29;20036;-86
2023/08/21 06:36:02;;;;;;;16.87;3.67;;;;;;;19.21;56.90;99725.53;4899524;29;20522;-86
2023/08/21 06:38:28;;;;;;;15.30;4.20;;;;;;;19.08;56.37;99710.19;4908791;29;20540;-87
2023/08/21 06:40:54;;;;;;;13.70;3.93;;;;;;;19.12;56.97;99718.56;4915813;29;20308;-91
2023/08/21 06:43:21;;;;;;;12.63;3.97;;;;;;;19.24;56.90;99702.63;4896214;29;20108;-88
2023/08/21 06:45:49;;;;;;;18.13;3.80;;;;;;;19.28;55.63;99699.94;4882987;29;20048;-87
2023/08/21 06:48:15;;;;;;;14.57;4.17;;;;;;;19.64;56.21;99734.81;4895430;29;20055;-88
2023/08/21 06:50:41;;;;;;;20.37;4.53;;;;;;;19.47;55.50;99722.16;4927428;29;20044;-87
2023/08/21 06:53:07;;;;;;;5.63;3.07;;;;;;;19.47;56.47;99701.94;4908987;29;20036;-89
2023/08/21 06:55:33;;;;;;;13.80;4.20;;;;;;;19.41;55.47;99698.66;4924199;29;20040;-89
2023/08/21 06:57:59;;;;;;;10.68;3.85;;;;;;;19.52;55.84;99728.56;4923237;29;20300;-89
2023/08/21 07:00:25;;;;;;;17.53;4.10;;;;;;;19.63;55.90;99741.50;4893999;29;20042;-86
2023/08/21 07:02:51;;;;;;;12.65;3.30;;;;;;;19.69;56.11;99722.63;4922508;29;20048;-87
2023/08/21 07:05:18;;;;;;;13.70;3.67;;;;;;;19.83;54.92;99722.91;4916006;29;20083;-88
2023/08/21 07:07:44;;;;;;;34.13;4.73;;;;;;;19.95;54.62;99710.88;4924190;29;20144;-90
2023/08/21 07:10:10;;;;;;;22.53;4.40;;;;;;;20.14;53.31;99748.91;4902814;29;20043;-87
2023/08/21 07:12:36;;;;;;;13.52;3.63;;;;;;;20.04;54.02;99736.44;4925634;29;20039;-88
2023/08/21 07:15:02;;;;;;;5.87;3.47;;;;;;;20.15;54.01;99756.84;4894191;29;20102;-87
2023/08/21 07:17:29;;;;;;;16.00;4.15;;;;;;;20.30;54.25;99738.53;4915957;29;20770;-89
2023/08/21 07:19:56;;;;;;;9.93;3.85;;;;;;;20.16;52.78;99691.03;4911856;29;20059;-89
2023/08/21 07:22:22;;;;;;;9.45;3.50;;;;;;;20.51;51.34;99729.00;4927247;29;20489;-88
2023/08/21 07:24:48;;;;;;;8.70;3.50;;;;;;;20.51;52.47;99729.78;4902470;29;20130;-89
2023/08/21 07:27:16;;;;;;;21.77;4.10;;;;;;;20.56;50.63;99739.78;4914142;29;20080;-88
2023/08/21 07:29:42;;;;;;;9.75;3.55;;;;;;;20.61;51.78;99750.59;4915516;29;20048;-86
2023/08/21 07:32:10;;;;;;;5.38;3.20;;;;;;;20.71;52.47;99755.53;4934097;29;20050;-87
2023/08/21 07:35:20;;;;;;;12.88;4.10;;;;;;;20.44;51.39;99712.19;4901445;29;20032;-88
2023/08/21 07:40:35;;;;;;;14.43;3.15;;;;;;;20.60;52.17;99715.69;5042596;23;20053;-90
2023/08/21 07:43:02;;;;;;;;;;;;;;;20.82;50.89;99761.28;4887002;29;20028;-86
2023/08/21 07:45:29;;;;;;;18.70;3.50;;;;;;;20.83;51.39;99751.78;4889579;29;20019;-86
2023/08/21 07:47:55;;;;;;;17.77;3.75;;;;;;;20.71;50.89;99727.75;4882611;29;20044;-90
2023/08/21 07:50:21;;;;;;;15.98;4.03;;;;;;;20.89;50.57;99739.16;4885244;29;20040;-86
2023/08/21 07:52:48;;;;;;;10.98;3.88;;;;;;;20.93;49.27;99736.47;4894016;29;20048;-89
2023/08/21 07:55:14;;;;;;;9.20;3.73;;;;;;;20.80;50.56;99702.50;4892574;29;20131;-90
2023/08/21 07:57:47;;;;;;;10.52;3.88;;;;;;;21.13;50.83;99751.06;4914592;29;20073;-88
2023/08/21 08:00:19;;;;;;;29.10;5.15;;;;;;;21.03;51.29;99747.75;4902375;29;20053;-84
2023/08/21 08:02:50;;;;;;;7.68;3.50;;;;;;;20.85;50.06;99738.31;4879532;29;20491;-87
2023/08/21 08:05:45;;;;;;;9.30;3.97;;;;;;;20.64;50.98;99702.63;4910820;29;20053;-88
2023/08/21 08:08:18;;;;;;;10.60;3.97;;;;;;;20.63;49.35;99696.28;4921065;29;20088;-91
2023/08/21 08:10:48;;;;;;;7.55;3.25;;;;;;;20.63;49.74;99692.72;4909485;29;20075;-86
2023/08/21 08:13:15;;;;;;;10.38;3.58;;;;;;;20.73;50.83;99703.19;4883988;29;20033;-86
2023/08/21 08:15:46;;;;;;;8.98;3.38;;;;;;;20.70;50.96;99689.25;4890734;29;20127;-89
2023/08/21 08:18:14;;;;;;;13.45;3.90;;;;;;;20.65;49.59;99690.34;4895651;29;20116;-88
2023/08/21 08:20:41;;;;;;;6.70;3.13;;;;;;;20.86;51.32;99726.84;4895461;29;20045;-89
2023/08/21 08:23:07;;;;;;;13.75;4.05;;;;;;;20.59;51.15;99681.50;4909107;29;20040;-90
2023/08/21 08:25:33;;;;;;;11.48;3.80;;;;;;;21.36;51.84;99749.06;4867741;29;20053;-89
2023/08/21 08:28:02;;;;;;;12.93;4.10;;;;;;;21.21;50.20;99699.94;4866612;29;20051;-90
2023/08/21 08:30:28;;;;;;;12.50;3.60;;;;;;;21.67;52.53;99699.81;4868486;29;20048;-88
2023/08/21 08:32:56;;;;;;;22.08;3.92;;;;;;;21.62;49.74;99689.78;4918069;29;20045;-89
2023/08/21 08:35:22;;;;;;;7.70;3.60;;;;;;;21.61;46.54;99720.78;4895061;29;20077;-90
2023/08/21 08:37:48;;;;;;;7.63;3.50;;;;;;;21.07;46.72;99667.19;4882755;29;20045;-90
2023/08/21 08:40:35;;;;;;;13.70;3.75;;;;;;;21.26;46.91;99683.75;4883386;29;20060;-90
2023/08/21 08:43:01;;;;;;;10.93;3.58;;;;;;;21.42;48.06;99680.78;4896071;29;20044;-89
2023/08/21 08:45:33;;;;;;;10.15;3.60;;;;;;;21.84;49.06;99665.81;4901064;29;20875;-89
2023/08/21 08:48:01;;;;;;;29.90;4.85;;;;;;;21.77;49.53;99633.13;4901896;29;20557;-89
2023/08/21 08:50:32;;;;;;;5.95;3.20;;;;;;;22.32;47.26;99718.88;4880584;29;20070;-89
2023/08/21 08:52:59;;;;;;;15.50;4.85;;;;;;;22.26;47.83;99710.06;4907763;29;20044;-90
2023/08/21 08:55:30;;;;;;;11.38;4.35;;;;;;;22.09;47.28;99695.94;4913871;29;20037;-89
2023/08/21 08:58:05;;;;;;;17.27;3.97;;;;;;;22.13;47.39;99668.91;4877060;29;20527;-90
2023/08/21 09:00:33;;;;;;;12.27;3.95;;;;;;;22.29;45.71;99694.56;4890259;29;20037;-89
2023/08/21 09:03:01;;;;;;;9.18;3.63;;;;;;;22.38;45.23;99683.88;4893873;29;20084;-91
2023/08/21 09:05:28;;;;;;;22.25;5.25;;;;;;;22.41;45.22;99691.47;4881632;29;20043;-91
2023/08/21 09:08:14;;;;;;;11.65;4.00;;;;;;;22.60;46.47;99709.19;4881103;29;20067;-88
2023/08/21 09:10:45;;;;;;;16.67;4.25;;;;;;;22.36;42.98;99705.78;4899783;29;20045;-88
2023/08/21 09:13:18;;;;;;;7.82;3.63;;;;;;;22.19;43.89;99679.34;4887403;29;20082;-89
2023/08/21 09:15:53;;;;;;;10.00;3.83;;;;;;;22.04;46.35;99660.84;4859854;29;20061;-89
2023/08/21 09:18:19;;;;;;;6.38;3.53;;;;;;;22.21;43.36;99702.03;4889673;29;20151;-89
2023/08/21 09:20:47;;;;;;;8.93;3.40;;;;;;;22.14;43.80;99668.53;4862662;29;20041;-89
2023/08/21 09:23:16;;;;;;;9.43;3.60;;;;;;;22.54;47.08;99686.44;4864411;29;20049;-89
2023/08/21 09:25:56;;;;;;;11.35;3.50;;;;;;;22.72;47.60;99662.31;4876215;29;20037;-87
2023/08/21 09:28:22;;;;;;;16.83;4.38;;;;;;;22.89;43.96;99634.94;4843977;29;20064;-87
2023/08/21 09:30:54;;;;;;;13.60;4.47;;;;;;;22.92;42.04;99659.25;4877914;29;20052;-89
2023/08/21 09:33:22;;;;;;;7.70;3.17;;;;;;;22.65;41.95;99676.19;4881794;29;20051;-88
2023/08/21 09:35:52;;;;;;;11.20;3.65;;;;;;;22.39;43.05;99679.94;4888832;29;20061;-89
2023/08/21 09:38:19;;;;;;;12.05;3.72;;;;;;;22.44;43.26;99682.34;4877039;29;20040;-88
2023/08/21 09:40:55;;;;;;;8.02;3.33;;;;;;;22.24;43.83;99661.47;4891818;29;20051;-88
2023/08/21 09:43:24;;;;;;;11.68;3.92;;;;;;;22.53;44.56;99651.41;4877726;29;20049;-90
2023/08/21 09:45:55;;;;;;;8.88;3.97;;;;;;;22.26;41.62;99614.56;4877779;29;20045;-89
2023/08/21 09:48:28;;;;;;;12.70;3.20;;;;;;;22.13;41.45;99650.22;4877381;29;20057;-88
2023/08/21 09:50:55;;;;;;;12.90;4.10;;;;;;;21.75;43.56;99612.44;4877187;29;20040;-88
2023/08/21 09:53:26;;;;;;;6.78;3.55;;;;;;;22.07;46.52;99635.03;4912014;29;20040;-89
2023/08/21 09:56:21;;;;;;;10.90;3.92;;;;;;;22.27;41.10;99647.59;4873638;29;20549;-88
2023/08/21 09:58:50;;;;;;;9.68;3.50;;;;;;;22.10;41.40;99650.19;4890031;29;20511;-87
2023/08/21 10:01:21;;;;;;;15.02;3.50;;;;;;;22.30;44.87;99643.25;4880658;29;20468;-89
2023/08/21 10:03:59;;;;;;;10.23;3.20;;;;;;;22.57;43.18;99657.81;4903499;29;20036;-88
2023/08/21 10:06:25;;;;;;;8.93;3.13;;;;;;;22.74;42.64;99643.19;4879552;29;20036;-87
2023/08/21 10:08:55;;;;;;;6.30;3.13;;;;;;;22.63;42.26;99608.88;4906590;29;20148;-88
2023/08/21 10:11:24;;;;;;;10.27;3.50;;;;;;;22.83;42.76;99636.50;4910859;29;20041;-89
2023/08/21 10:14:02;;;;;;;16.35;3.85;;;;;;;22.63;42.03;99620.03;4897686;29;20041;-89
2023/08/21 10:16:58;;;;;;;11.20;3.22;;;;;;;22.52;40.13;99650.59;4877219;29;20056;-88
2023/08/21 10:19:35;;;;;;;6.47;2.88;;;;;;;21.93;39.38;99602.28;4899281;29;20060;-88
2023/08/21 10:22:26;;;;;;;8.82;3.00;;;;;;;21.99;40.84;99625.03;4868545;29;20096;-88
2023/08/21 10:29:12;;;;;;;11.18;3.25;;;;;;;22.70;44.52;99670.25;516680;26;20326;-89
2023/08/21 10:34:57;;;;;;;9.43;3.42;;;;;;;22.63;40.64;99642.31;5090053;23;20087;-89
2023/08/21 10:38:40;;;;;;;16.27;4.57;;;;;;;22.39;42.91;99590.00;4920645;23;20077;-87
2023/08/21 10:41:11;;;;;;;11.60;4.18;;;;;;;22.67;43.47;99623.63;4898855;29;20051;-88
2023/08/21 10:44:03;;;;;;;10.85;3.60;;;;;;;22.78;41.95;99623.75;4881355;29;20051;-89
2023/08/21 10:46:57;;;;;;;11.73;4.53;;;;;;;22.75;42.03;99597.44;4893842;29;20229;-89
2023/08/21 10:49:23;;;;;;;9.50;3.67;;;;;;;23.07;42.90;99619.13;4853433;29;20047;-89
2023/08/21 10:52:04;;;;;;;9.25;3.63;;;;;;;23.11;40.74;99619.97;4898806;29;20068;-89
2023/08/21 10:54:50;;;;;;;8.10;3.55;;;;;;;23.02;39.27;99619.53;4913415;29;20122;-89
2023/08/21 10:57:17;;;;;;;8.93;3.60;;;;;;;23.23;40.84;99654.28;4898020;29;20051;-91
2023/08/21 11:00:27;;;;;;;12.48;3.80;;;;;;;23.21;39.14;99624.81;4862519;29;20083;-88
2023/08/21 11:02:56;;;;;;;6.20;3.38;;;;;;;23.32;39.38;99608.13;4896740;29;20116;-88
2023/08/21 11:05:30;;;;;;;17.30;3.73;;;;;;;23.35;39.07;99618.50;4896965;29;20044;-86
2023/08/21 11:07:59;;;;;;;13.15;3.75;;;;;;;23.45;42.42;99612.16;4898741;29;20136;-89
2023/08/21 11:10:30;;;;;;;11.90;4.00;;;;;;;23.55;40.85;99624.56;4878334;29;20050;-89
2023/08/21 11:13:00;;;;;;;18.15;5.43;;;;;;;23.62;41.95;99593.06;4878909;29;20614;-90
2023/08/21 11:15:37;;;;;;;19.55;4.40;;;;;;;23.64;39.14;99596.25;4880459;29;20056;-89
2023/08/21 11:18:27;;;;;;;17.15;3.75;;;;;;;23.77;39.71;99622.63;4890876;29;20120;-89
2023/08/21 11:21:03;;;;;;;7.28;3.25;;;;;;;23.89;39.50;99621.50;4861222;29;20048;-89
2023/08/21 11:23:37;;;;;;;12.55;3.67;;;;;;;23.88;39.31;99614.31;4893702;29;20120;-87
2023/08/21 11:26:07;;;;;;;10.90;3.30;;;;;;;24.03;38.58;99640.25;4871084;29;20065;-88
2023/08/21 11:28:35;;;;;;;6.47;3.75;;;;;;;23.99;38.62;99612.31;4865135;29;20068;-86
2023/08/21 11:31:04;;;;;;;26.75;3.88;;;;;;;24.00;38.61;99627.09;4851473;29;20045;-88
2023/08/21 11:33:32;;;;;;;10.57;3.50;;;;;;;23.96;37.64;99618.69;4870962;29;20063;-89
2023/08/21 11:36:01;;;;;;;9.85;3.63;;;;;;;24.07;38.53;99618.72;4866403;29;20045;-90
2023/08/21 11:38:29;;;;;;;23.05;3.72;;;;;;;23.80;37.13;99601.50;4897470;29;20364;-89
2023/08/21 11:40:59;;;;;;;6.88;3.05;;;;;;;23.88;38.94;99586.41;4900531;29;20041;-88
2023/08/21 11:43:40;;;;;;;19.13;3.90;;;;;;;24.30;40.66;99595.97;4901497;29;20053;-87
2023/08/21 11:46:08;;;;;;;24.10;4.07;;;;;;;24.28;39.23;99562.88;4905783;29;20127;-87
2023/08/21 11:48:37;;;;;;;11.82;3.30;;;;;;;24.46;36.12;99606.78;4869058;29;20162;-90